Time;durP1;ratioP1;P1;durP2;ratioP2;P2;SDS_P1;SDS_P2;PMS_P1;PMS_P2;Temp;Humidity;BMP_temperature;BMP_pressure;BME280_temperature;BME280_humidity;BME280_pressure;Samples;Min_cycle;Max_cycle;Signal;HPM_P1;HPM_P2
2021/05/18 00:01:16;;;;;;;12.52;6.22;;;;;;;7.62;86.78;100377.53;5058872;28;20060;-49
2021/05/18 00:03:41;;;;;;;10.13;5.88;;;;;;;7.62;86.92;100377.53;5073821;28;20025;-49
2021/05/18 00:06:07;;;;;;;8.63;5.50;;;;;;;7.65;86.28;100374.91;5070111;28;20516;-50
2021/05/18 00:11:42;;;;;;;9.90;5.47;;;;;;;7.71;86.54;100378.41;5045622;28;20048;-54
2021/05/18 00:14:04;;;;;;;8.35;5.07;;;;;;;7.78;86.70;100373.25;5024577;28;20599;-49
2021/05/18 00:16:29;;;;;;;11.45;6.07;;;;;;;7.73;87.81;100377.56;5046679;28;20093;-51
2021/05/18 00:18:55;;;;;;;9.30;5.90;;;;;;;7.73;87.18;100376.69;5061739;28;20028;-52
2021/05/18 00:21:21;;;;;;;9.25;5.93;;;;;;;7.80;86.28;100371.50;5064677;28;20468;-52
2021/05/18 00:23:46;;;;;;;8.68;5.85;;;;;;;7.89;86.61;100374.97;5063553;28;20545;-49
2021/05/18 00:26:12;;;;;;;9.30;5.82;;;;;;;7.92;85.88;100372.38;5060065;28;20055;-50
2021/05/18 00:28:38;;;;;;;7.82;5.57;;;;;;;8.00;84.19;100370.66;5053541;28;20500;-50
2021/05/18 00:31:05;;;;;;;10.80;5.60;;;;;;;7.90;86.35;100374.13;5060591;28;20119;-52
2021/05/18 00:33:32;;;;;;;8.60;5.75;;;;;;;7.86;85.98;100370.63;5062646;28;20036;-54
2021/05/18 00:36:02;;;;;;;9.43;5.75;;;;;;;7.92;85.25;100359.34;5061150;28;20044;-50
2021/05/18 00:38:28;;;;;;;7.28;4.93;;;;;;;8.02;84.52;100366.31;5062235;28;20039;-50
2021/05/18 00:40:54;;;;;;;11.88;6.10;;;;;;;7.89;85.50;100368.06;5060306;28;20363;-50
2021/05/18 00:43:20;;;;;;;10.00;6.22;;;;;;;7.87;86.73;100369.78;5057431;28;20028;-51
2021/05/18 00:45:48;;;;;;;10.52;6.13;;;;;;;7.88;86.95;100368.03;5062389;28;20109;-50
2021/05/18 00:48:16;;;;;;;10.15;6.15;;;;;;;7.87;87.16;100371.53;5064711;28;20648;-51
2021/05/18 00:50:49;;;;;;;13.45;6.05;;;;;;;7.91;87.08;100368.91;5042928;28;20043;-53
2021/05/18 00:53:16;;;;;;;12.38;6.40;;;;;;;7.88;87.68;100362.81;5062556;28;20072;-51
2021/05/18 00:55:59;;;;;;;9.40;5.32;;;;;;;7.98;85.81;100369.78;5076923;28;20032;-49
2021/05/18 00:58:35;;;;;;;10.77;6.45;;;;;;;8.02;87.19;100367.19;5061517;28;20032;-51
2021/05/18 01:01:04;;;;;;;10.20;6.32;;;;;;;8.01;86.92;100356.78;5059222;28;20110;-53
2021/05/18 01:03:31;;;;;;;10.45;6.63;;;;;;;8.01;87.90;100365.44;5042048;28;20033;-50
2021/05/18 01:08:42;;;;;;;11.18;6.45;;;;;;;8.01;87.76;100370.66;5061200;28;20388;-50
2021/05/18 01:11:09;;;;;;;10.73;6.43;;;;;;;8.00;87.77;100374.13;5060221;28;20047;-53
2021/05/18 01:13:35;;;;;;;12.30;6.50;;;;;;;8.03;87.80;100360.25;5041375;28;20048;-51
2021/05/18 01:16:03;;;;;;;10.75;6.88;;;;;;;8.02;86.95;100361.97;5030978;28;20039;-50
2021/05/18 01:18:44;;;;;;;9.45;5.97;;;;;;;8.03;87.11;100373.28;5061557;28;20384;-52
2021/05/18 01:21:13;;;;;;;12.40;6.55;;;;;;;7.98;87.37;100364.59;5061392;28;20655;-52
2021/05/18 01:23:40;;;;;;;8.30;5.93;;;;;;;8.06;86.42;100375.88;5067316;28;20657;-50
2021/05/18 01:26:06;;;;;;;10.43;6.88;;;;;;;8.18;85.54;100375.88;5047672;28;20435;-54
2021/05/18 01:28:32;;;;;;;12.88;7.88;;;;;;;8.24;85.68;100380.22;5058859;28;20036;-51
2021/05/18 01:31:01;;;;;;;11.70;7.90;;;;;;;8.30;85.64;100385.41;5060910;28;20574;-53
2021/05/18 01:33:27;;;;;;;13.07;7.30;;;;;;;8.66;85.94;100377.63;5050440;28;20028;-54
2021/05/18 01:35:55;;;;;;;16.20;9.27;;;;;;;8.46;85.93;100381.13;5056996;28;20040;-51
2021/05/18 01:38:24;;;;;;;14.80;8.93;;;;;;;8.47;87.42;100380.25;5065328;28;20056;-51
2021/05/18 01:43:36;;;;;;;12.25;9.65;;;;;;;8.24;88.36;100387.16;5064595;28;20044;-52
2021/05/18 01:46:02;;;;;;;15.45;10.32;;;;;;;8.16;89.40;100397.59;5061384;28;20463;-51
2021/05/18 01:48:33;;;;;;;16.00;11.07;;;;;;;8.11;89.31;100386.28;5063425;28;20036;-53
2021/05/18 01:50:59;;;;;;;18.38;10.88;;;;;;;8.17;89.35;100389.78;5048196;28;20525;-51
2021/05/18 01:53:25;;;;;;;15.95;10.63;;;;;;;8.19;89.39;100389.75;5061889;28;20127;-51
2021/05/18 01:56:19;;;;;;;18.75;11.05;;;;;;;8.17;90.10;100389.78;5065554;28;20039;-51
2021/05/18 01:58:48;;;;;;;18.60;11.52;;;;;;;8.10;90.97;100395.84;5065837;28;20032;-50
2021/05/18 02:01:25;;;;;;;19.13;11.48;;;;;;;8.12;89.79;100396.69;5067929;28;20051;-50
2021/05/18 02:03:51;;;;;;;18.05;11.07;;;;;;;8.15;90.13;100396.69;5062339;28;20126;-53
2021/05/18 02:06:16;;;;;;;17.05;11.07;;;;;;;8.20;89.61;100401.94;5045903;28;20120;-52
2021/05/18 02:08:44;;;;;;;18.48;11.93;;;;;;;8.19;90.35;100401.03;5065226;28;20141;-52
2021/05/18 02:11:16;;;;;;;19.02;12.68;;;;;;;8.15;90.87;100401.91;5049782;28;20044;-50
2021/05/18 02:13:47;;;;;;;19.60;12.77;;;;;;;8.13;90.64;100403.66;5078290;28;20055;-49
2021/05/18 02:16:27;;;;;;;17.83;10.70;;;;;;;8.16;90.74;100408.84;5063461;28;20047;-51
2021/05/18 02:19:09;;;;;;;18.10;11.32;;;;;;;8.26;88.94;100414.06;5063977;28;20237;-51
2021/05/18 02:22:05;;;;;;;18.70;12.20;;;;;;;8.84;88.43;100398.44;5042706;28;20026;-52
2021/05/18 02:25:05;;;;;;;20.90;13.32;;;;;;;8.50;89.49;100403.69;5061506;28;20034;-51
2021/05/18 02:27:33;;;;;;;20.60;13.32;;;;;;;8.43;90.24;100401.06;5043113;28;20611;-50
2021/05/18 02:29:59;;;;;;;19.90;13.27;;;;;;;8.40;89.87;100401.91;5060011;28;20260;-53
2021/05/18 02:32:27;;;;;;;21.92;13.20;;;;;;;8.38;89.57;100408.00;5074014;28;20347;-50
2021/05/18 02:35:12;;;;;;;17.83;12.85;;;;;;;8.57;87.88;100403.69;5075371;28;20417;-50
2021/05/18 02:37:39;;;;;;;19.77;11.18;;;;;;;8.58;89.47;100408.03;5060847;28;20052;-51
2021/05/18 02:40:15;;;;;;;17.02;12.30;;;;;;;8.94;88.53;100403.63;5073518;28;20054;-51
2021/05/18 02:42:41;;;;;;;15.73;9.70;;;;;;;8.64;89.21;100406.28;5044259;28;20087;-52
2021/05/18 02:45:14;;;;;;;15.35;9.70;;;;;;;8.60;89.95;100411.50;5057805;28;20057;-50
2021/05/18 02:50:24;;;;;;;13.40;8.57;;;;;;;8.67;89.91;100408.03;5073567;28;20126;-49
2021/05/18 02:52:50;;;;;;;12.48;7.60;;;;;;;8.45;89.16;100405.44;5070685;28;20036;-54
2021/05/18 02:55:27;;;;;;;11.60;7.13;;;;;;;8.50;90.12;100406.31;5058346;28;20039;-51
2021/05/18 02:57:53;;;;;;;13.52;7.65;;;;;;;8.45;89.97;100407.19;5074567;28;20024;-52
2021/05/18 03:00:22;;;;;;;14.25;7.22;;;;;;;8.34;90.24;100413.19;5072761;28;20074;-53
2021/05/18 03:05:45;;;;;;;10.05;6.22;;;;;;;8.29;89.70;100430.59;5084028;27;20077;-88
2021/05/18 03:08:14;;;;;;;8.68;5.63;;;;;;;8.40;89.33;100420.16;5039285;28;20036;-88
2021/05/18 03:10:40;;;;;;;11.45;7.20;;;;;;;8.25;90.33;100434.06;5054169;28;20051;-89
2021/05/18 03:13:06;;;;;;;12.02;6.57;;;;;;;8.19;90.46;100423.63;5036350;27;20048;-89
2021/05/18 03:15:33;;;;;;;14.10;6.70;;;;;;;8.15;91.16;100440.97;5057657;28;20638;-88
2021/05/18 03:17:59;;;;;;;14.18;7.10;;;;;;;8.15;90.93;100412.31;5052171;28;20036;-88
2021/05/18 03:20:26;;;;;;;13.75;7.28;;;;;;;8.10;91.53;100406.25;5037417;28;20129;-88
2021/05/18 03:22:53;;;;;;;11.10;6.68;;;;;;;8.13;90.72;100434.03;5035389;28;20040;-88
2021/05/18 03:25:19;;;;;;;13.13;7.57;;;;;;;8.32;91.05;100424.50;5036572;28;20051;-88
2021/05/18 03:27:48;;;;;;;11.57;7.63;;;;;;;8.29;91.34;100403.66;5026432;28;20127;-89
2021/05/18 03:35:34;;;;;;;13.43;8.35;;;;;;;8.27;90.92;100447.94;5053244;28;20032;-88
2021/05/18 03:38:25;;;;;;;;;;;;;;;8.17;91.55;100418.41;5038736;28;20048;-88
2021/05/18 03:40:58;;;;;;;13.18;7.70;;;;;;;8.43;91.80;100443.63;5063592;28;19920;-89
2021/05/18 04:11:49;;;;;;;14.65;8.90;;;;;;;8.24;92.38;100434.03;5070357;28;20122;-89
2021/05/18 04:16:57;;;;;;;12.18;8.45;;;;;;;8.58;88.31;100457.53;5054973;28;20044;-87
2021/05/18 04:19:28;;;;;;;14.02;9.00;;;;;;;8.50;91.12;100427.16;5054677;28;20066;-88
2021/05/18 04:51:51;;;;;;;15.13;7.18;;;;;;;8.66;91.08;100477.50;5062984;28;20043;-87
2021/05/18 05:07:08;;;;;;;12.65;8.38;;;;;;;8.85;90.25;100451.47;5068406;28;20047;-87
2021/05/18 05:09:37;;;;;;;13.00;7.88;;;;;;;8.75;91.18;100494.00;5058936;28;20036;-88
2021/05/18 05:14:48;;;;;;;15.35;7.57;;;;;;;8.69;91.63;100455.78;5057272;28;20125;-87
2021/05/18 05:17:14;;;;;;;14.75;8.27;;;;;;;8.68;91.18;100480.13;5076776;28;20040;-88
2021/05/18 05:19:40;;;;;;;16.15;7.18;;;;;;;8.81;91.39;100481.00;5053753;28;20048;-88
2021/05/18 05:22:06;;;;;;;15.05;8.40;;;;;;;8.94;89.29;100466.22;5058508;28;20073;-89
2021/05/18 05:24:33;;;;;;;13.25;7.82;;;;;;;8.81;91.24;100458.41;5044842;28;20069;-89
2021/05/18 05:26:59;;;;;;;16.40;7.93;;;;;;;8.58;91.86;100462.75;5055289;28;20071;-91
2021/05/18 05:29:26;;;;;;;13.77;7.35;;;;;;;8.84;90.23;100496.63;5042002;28;20051;-90
2021/05/18 05:31:55;;;;;;;14.20;7.80;;;;;;;8.75;91.16;100494.00;5076067;28;20051;-90
2021/05/18 05:34:21;;;;;;;18.75;7.60;;;;;;;8.68;91.31;100464.47;5056025;28;20132;-89
2021/05/18 05:36:48;;;;;;;14.90;7.80;;;;;;;8.74;91.71;100476.66;5057237;28;20036;-90
2021/05/18 05:39:23;;;;;;;10.20;6.47;;;;;;;9.14;89.63;100464.44;5043250;28;20085;-91
2021/05/18 05:41:54;;;;;;;13.38;6.55;;;;;;;8.99;89.15;100457.50;5040248;28;20056;-91
2021/05/18 05:44:24;;;;;;;14.05;7.30;;;;;;;9.02;88.31;100490.53;5049801;28;20040;-91
2021/05/18 05:46:56;;;;;;;12.88;7.30;;;;;;;8.90;90.13;100474.91;5061003;28;20152;-91
2021/05/18 05:49:23;;;;;;;13.23;7.47;;;;;;;8.72;91.26;100461.00;5038258;28;20044;-92
2021/05/18 05:51:49;;;;;;;14.52;7.60;;;;;;;8.62;91.50;100467.09;5038536;28;20685;-92
2021/05/18 05:54:15;;;;;;;15.80;7.72;;;;;;;8.59;92.49;100467.97;5041353;28;20032;-91
2021/05/18 05:56:43;;;;;;;15.00;7.93;;;;;;;8.90;91.11;100495.75;5075110;28;20089;-91
2021/05/18 05:59:09;;;;;;;15.43;8.10;;;;;;;8.87;89.94;100467.94;5055796;28;20048;-91
2021/05/18 06:01:36;;;;;;;17.15;7.20;;;;;;;8.87;89.43;100496.63;5035575;28;20036;-91
2021/05/18 06:04:03;;;;;;;12.90;7.00;;;;;;;8.88;89.73;100493.16;5007618;28;20508;-91
2021/05/18 06:06:29;;;;;;;13.15;6.82;;;;;;;8.79;91.05;100477.50;5029599;28;20047;-91
2021/05/18 06:08:55;;;;;;;22.42;7.97;;;;;;;8.76;91.96;100504.44;5058626;28;20035;-91
2021/05/18 06:14:04;;;;;;;16.92;7.47;;;;;;;8.90;91.15;100486.19;5054895;28;20097;-91
2021/05/18 06:16:53;;;;;;;12.77;7.22;;;;;;;8.82;91.77;100519.22;5041394;28;20043;-91
2021/05/18 06:41:48;;;;;;;12.60;7.50;;;;;;;9.28;90.51;100502.69;5054707;28;20050;-91
2021/05/18 06:47:11;;;;;;;13.65;6.80;;;;;;;9.42;90.03;100554.81;5057723;28;20578;-90
2021/05/18 06:49:44;;;;;;;11.40;6.25;;;;;;;9.60;87.99;100533.91;5057283;28;20044;-90
2021/05/18 06:52:10;;;;;;;12.05;6.38;;;;;;;9.60;88.20;100540.88;5052631;28;20044;-90
2021/05/18 06:54:36;;;;;;;12.75;6.43;;;;;;;9.44;90.18;100519.16;5038868;28;20618;-90
2021/05/18 06:57:06;;;;;;;11.95;6.35;;;;;;;9.42;90.35;100515.69;5040701;28;20169;-91
2021/05/18 07:02:00;;;;;;;13.32;6.93;;;;;;;9.54;89.37;100520.88;5047904;28;20077;-90
2021/05/18 07:04:27;;;;;;;12.10;7.43;;;;;;;9.55;89.42;100551.31;5045598;28;20052;-90
2021/05/18 07:09:19;;;;;;;10.63;6.65;;;;;;;9.49;89.50;100543.50;5072177;28;20663;-90
2021/05/18 07:11:47;;;;;;;11.27;6.10;;;;;;;9.68;87.81;100533.88;5041365;28;20050;-90
2021/05/18 07:14:14;;;;;;;12.75;6.15;;;;;;;9.57;89.25;100556.50;5058383;28;20056;-90
2021/05/18 07:16:39;;;;;;;11.85;5.25;;;;;;;9.75;87.62;100530.38;5061521;28;20634;-90
2021/05/18 07:19:05;;;;;;;9.90;5.93;;;;;;;9.70;88.70;100555.63;5056568;28;20101;-90
2021/05/18 07:21:31;;;;;;;11.00;5.95;;;;;;;9.58;88.86;100540.88;5058351;28;20130;-90
2021/05/18 07:23:57;;;;;;;9.63;6.25;;;;;;;9.61;88.46;100535.66;5059591;28;20047;-90
2021/05/18 07:26:23;;;;;;;9.60;5.82;;;;;;;9.87;87.80;100561.66;5056976;28;20082;-90
2021/05/18 07:28:51;;;;;;;8.90;5.75;;;;;;;9.80;87.93;100553.84;5050869;28;20047;-91
2021/05/18 07:31:17;;;;;;;9.20;5.68;;;;;;;9.62;87.69;100540.00;5053823;28;20036;-91
2021/05/18 07:33:44;;;;;;;12.60;6.57;;;;;;;9.52;89.34;100544.34;5035494;28;20047;-90
2021/05/18 07:36:10;;;;;;;10.98;5.95;;;;;;;9.67;88.30;100555.63;5040229;28;20412;-90
2021/05/18 07:38:41;;;;;;;12.77;6.75;;;;;;;9.51;88.45;100579.16;5043868;28;20048;-89
2021/05/18 07:41:08;;;;;;;10.00;6.60;;;;;;;9.72;87.42;100553.88;5069872;28;20032;-90
2021/05/18 07:43:34;;;;;;;10.93;6.70;;;;;;;9.69;88.23;100569.53;5053247;28;20057;-90
2021/05/18 07:46:01;;;;;;;10.18;6.72;;;;;;;9.65;87.41;100570.41;5052364;28;20044;-89
2021/05/18 07:48:41;;;;;;;11.65;7.65;;;;;;;9.61;89.05;100538.25;5052437;28;20372;-90
2021/05/18 07:59:24;;;;;;;20.42;10.18;;;;;;;9.99;89.90;100542.44;5071870;28;20101;-90
2021/05/18 08:07:26;;;;;;;21.10;11.02;;;;;;;10.31;89.27;100540.56;5062577;28;20059;-89
2021/05/18 08:10:48;;;;;;;22.10;11.98;;;;;;;10.11;90.44;100569.41;5066071;28;20052;-89
2021/05/18 08:12:53;;;;;;;23.30;13.60;;;;;;;10.49;85.49;100548.31;5063136;28;20059;-90
2021/05/18 10:35:24;;;;;;;15.52;12.05;;;;;;;11.52;82.35;100540.47;5055160;27;20040;-85
2021/05/18 10:38:06;;;;;;;18.40;10.35;;;;;;;11.71;78.80;100528.94;5055993;28;20024;-87
2021/05/18 10:40:37;;;;;;;12.60;9.82;;;;;;;11.75;81.24;100543.75;5037549;28;20457;-87
2021/05/18 10:43:21;;;;;;;14.23;9.80;;;;;;;11.89;79.06;100525.25;5052265;28;20083;-89
2021/05/18 10:46:11;;;;;;;11.90;9.48;;;;;;;12.24;76.37;100523.09;5035559;28;20062;-90
2021/05/18 10:48:37;;;;;;;12.68;9.82;;;;;;;12.42;79.43;100532.44;5042232;28;20090;-86
2021/05/18 10:51:35;;;;;;;11.82;7.93;;;;;;;12.42;69.34;100527.19;5039459;28;20178;-92
2021/05/18 10:54:08;;;;;;;12.18;7.00;;;;;;;12.24;70.07;100531.78;5044824;28;20082;-90
2021/05/18 10:56:53;;;;;;;11.23;8.10;;;;;;;12.09;74.31;100526.75;5071299;28;20044;-91
2021/05/18 10:59:23;;;;;;;10.82;8.20;;;;;;;12.32;73.28;100549.16;5088663;28;20044;-92
2021/05/18 11:01:57;;;;;;;9.90;8.18;;;;;;;12.36;70.79;100549.09;5046143;28;20040;-90
2021/05/18 11:04:27;;;;;;;11.52;8.23;;;;;;;12.38;71.11;100533.38;5052844;28;20037;-91
2021/05/18 11:07:02;;;;;;;9.18;6.28;;;;;;;12.23;68.29;100545.78;5073520;28;20099;-90
2021/05/18 11:09:29;;;;;;;10.23;6.72;;;;;;;12.24;70.27;100552.75;5070845;28;20031;-91
2021/05/18 11:12:18;;;;;;;9.77;7.85;;;;;;;12.23;72.25;100552.78;5073481;28;20133;-90
2021/05/18 11:14:57;;;;;;;9.88;7.40;;;;;;;12.37;69.31;100570.94;5041566;28;20492;-91
2021/05/18 11:17:26;;;;;;;8.25;6.78;;;;;;;12.34;70.50;100574.47;5050603;28;20458;-90
2021/05/18 11:20:02;;;;;;;8.25;6.10;;;;;;;12.24;69.63;100549.28;5063158;28;20082;-90
2021/05/18 11:25:27;;;;;;;9.95;7.32;;;;;;;12.36;73.52;100548.22;5050199;28;20040;-89
2021/05/18 11:27:53;;;;;;;11.52;7.90;;;;;;;12.67;76.04;100555.66;5067484;28;20071;-89
2021/05/18 11:30:27;;;;;;;10.13;6.65;;;;;;;12.77;72.10;100549.38;5053136;28;20079;-90
2021/05/18 11:32:55;;;;;;;10.15;5.95;;;;;;;13.17;71.25;100555.75;5086643;27;20044;-89
2021/05/18 11:35:21;;;;;;;7.82;4.60;;;;;;;13.34;69.49;100552.81;5053168;28;20051;-88
2021/05/18 11:38:07;;;;;;;7.85;5.82;;;;;;;13.05;70.82;100569.94;5055964;28;20061;-90
2021/05/18 11:40:41;;;;;;;8.50;5.50;;;;;;;13.14;72.10;100569.78;5065138;28;20036;-89
2021/05/18 11:43:18;;;;;;;7.50;5.40;;;;;;;13.08;73.65;100543.63;5033168;28;20047;-91
2021/05/18 11:45:46;;;;;;;7.20;5.65;;;;;;;13.14;70.03;100576.78;5043478;28;20071;-87
2021/05/18 11:48:19;;;;;;;10.33;7.60;;;;;;;13.06;68.53;100555.91;5053310;28;20402;-85
2021/05/18 11:50:46;;;;;;;6.35;5.20;;;;;;;13.11;67.87;100549.69;5067149;28;20444;-87
2021/05/18 11:53:38;;;;;;;8.13;5.18;;;;;;;12.86;70.24;100546.63;5034542;28;20047;-88
2021/05/18 11:56:24;;;;;;;7.32;4.70;;;;;;;12.65;67.36;100541.69;5056199;28;20495;-86
2021/05/18 11:59:21;;;;;;;7.43;5.20;;;;;;;12.56;66.74;100588.16;5034261;27;20024;-87
2021/05/18 12:01:55;;;;;;;7.25;5.00;;;;;;;12.81;68.83;100573.78;5063999;28;20079;-86
2021/05/18 12:04:24;;;;;;;6.65;4.63;;;;;;;12.55;69.79;100562.81;5043487;28;20039;-88
2021/05/18 12:06:56;;;;;;;7.30;4.65;;;;;;;12.98;66.69;100570.94;5032414;28;20041;-87
2021/05/18 12:09:23;;;;;;;6.63;4.93;;;;;;;13.13;65.55;100578.53;5069679;28;20542;-86
2021/05/18 12:11:55;;;;;;;8.10;4.90;;;;;;;13.47;65.35;100549.09;5035890;28;22484;-87
2021/05/18 12:14:23;;;;;;;9.60;7.10;;;;;;;13.41;63.55;100552.69;5053126;28;20048;-89
2021/05/18 12:16:50;;;;;;;7.78;5.25;;;;;;;14.05;61.38;100536.59;5068157;28;20030;-85
2021/05/18 12:19:17;;;;;;;9.55;6.28;;;;;;;14.33;60.20;100540.34;5067909;28;21410;-86
2021/05/18 12:21:46;;;;;;;7.57;6.15;;;;;;;14.54;59.78;100537.25;5052718;28;20052;-87
2021/05/18 12:24:22;;;;;;;;;;;;;;;14.77;60.54;100531.47;5052248;28;20040;-85
2021/05/18 12:27:00;;;;;;;8.95;6.97;;;;;;;14.82;62.67;100529.56;5043398;28;20300;-87
2021/05/18 12:29:41;;;;;;;7.70;5.55;;;;;;;14.83;57.28;100530.47;5032508;28;20044;-86
2021/05/18 12:32:31;;;;;;;8.13;6.72;;;;;;;14.98;61.10;100524.81;5055191;28;20043;-85
2021/05/18 12:35:14;;;;;;;7.85;6.20;;;;;;;14.60;58.52;100534.47;5068490;28;20040;-87
2021/05/18 12:37:45;;;;;;;7.30;6.28;;;;;;;14.68;59.63;100526.44;5052956;28;20047;-87
2021/05/18 12:40:27;;;;;;;9.20;6.30;;;;;;;14.39;62.64;100530.56;5066099;28;20036;-87
2021/05/18 12:42:54;;;;;;;7.32;5.68;;;;;;;14.03;63.76;100527.84;5066357;28;20082;-87
2021/05/18 12:45:24;;;;;;;8.67;5.57;;;;;;;13.72;65.21;100541.63;5052362;28;20724;-86
2021/05/18 12:47:55;;;;;;;8.32;5.65;;;;;;;13.61;66.57;100551.47;5068410;28;20090;-87
2021/05/18 12:50:35;;;;;;;9.10;5.63;;;;;;;13.46;67.97;100563.13;5086318;28;20044;-87
2021/05/18 12:53:01;;;;;;;8.02;5.72;;;;;;;13.50;70.27;100558.66;5039757;28;20044;-87
2021/05/18 12:55:31;;;;;;;10.88;6.53;;;;;;;13.22;72.17;100532.88;5048077;28;20051;-86
2021/05/18 12:57:58;;;;;;;11.73;8.43;;;;;;;12.90;74.71;100526.44;5051791;28;20043;-88
2021/05/18 13:00:26;;;;;;;10.60;8.15;;;;;;;12.29;72.88;100528.25;5068328;28;20186;-87
2021/05/18 13:02:53;;;;;;;9.60;7.72;;;;;;;12.31;75.02;100544.81;5034376;28;20899;-88
2021/05/18 13:05:25;;;;;;;9.25;6.80;;;;;;;12.39;73.58;100556.03;5034795;28;20951;-86
2021/05/18 13:08:14;;;;;;;8.75;6.43;;;;;;;12.27;71.88;100565.81;5049610;28;20036;-87
2021/05/18 13:13:36;;;;;;;7.97;6.25;;;;;;;11.84;72.38;100568.09;5064104;28;20546;-88
2021/05/18 13:16:19;;;;;;;;;;;;;;;11.48;74.54;100584.16;5054600;28;20056;-88
2021/05/18 13:19:02;;;;;;;12.07;7.80;;;;;;;11.42;74.71;100581.59;5066510;28;19927;-89
2021/05/18 13:21:34;;;;;;;9.85;6.72;;;;;;;11.18;75.80;100601.88;5046108;28;20538;-88
2021/05/18 13:26:31;;;;;;;8.73;6.82;;;;;;;10.95;75.92;100607.31;5066206;28;20048;-88
2021/05/18 13:29:03;;;;;;;11.30;7.72;;;;;;;10.81;78.86;100594.28;5033346;28;20089;-88
2021/05/18 13:31:31;;;;;;;10.20;7.45;;;;;;;10.80;78.47;100629.19;5053712;28;20678;-89
2021/05/18 13:33:58;;;;;;;9.40;7.13;;;;;;;10.54;78.82;100606.66;5070393;27;20400;-89
2021/05/18 13:36:31;;;;;;;8.80;6.85;;;;;;;10.30;79.18;100638.09;5055663;28;20298;-89
2021/05/18 13:39:42;;;;;;;9.85;7.30;;;;;;;10.06;81.25;100624.28;5054625;28;20036;-88
2021/05/18 13:42:51;;;;;;;9.02;6.50;;;;;;;9.85;80.34;100635.66;5067391;28;20132;-89
2021/05/18 13:45:22;;;;;;;9.10;7.30;;;;;;;9.70;83.09;100633.94;5052094;28;20047;-89
2021/05/18 13:47:51;;;;;;;9.85;7.68;;;;;;;9.67;84.55;100637.41;5069805;28;20121;-89
2021/05/18 13:50:20;;;;;;;10.48;8.32;;;;;;;9.60;85.14;100646.13;5056021;28;20040;-89
2021/05/18 13:52:46;;;;;;;10.45;8.45;;;;;;;9.88;84.15;100635.63;5057517;28;20033;-89
2021/05/18 13:55:14;;;;;;;13.23;9.57;;;;;;;9.86;84.66;100663.50;5055771;28;20043;-89
2021/05/18 13:57:40;;;;;;;12.27;8.95;;;;;;;10.26;82.71;100647.72;5088704;28;20093;-89
2021/05/18 14:00:09;;;;;;;12.65;8.90;;;;;;;10.08;83.31;100643.44;5054202;28;20059;-88
2021/05/18 14:02:41;;;;;;;11.57;8.10;;;;;;;9.96;83.49;100627.78;5056068;28;20069;-90
2021/05/18 14:05:16;;;;;;;10.85;7.70;;;;;;;10.17;82.46;100653.81;5039173;27;20059;-89
2021/05/18 14:10:46;;;;;;;10.30;7.50;;;;;;;10.07;82.57;100615.56;5054673;28;20070;-90
2021/05/18 14:13:11;;;;;;;9.35;7.03;;;;;;;10.00;81.57;100643.44;5037419;28;20064;-89
2021/05/18 14:15:37;;;;;;;9.00;6.82;;;;;;;10.15;81.68;100619.03;5052928;28;20798;-89
2021/05/18 14:18:20;;;;;;;9.43;7.40;;;;;;;10.65;78.55;100626.66;5056570;28;20044;-90
2021/05/18 14:20:47;;;;;;;8.55;7.03;;;;;;;11.00;76.99;100605.50;5025375;28;20130;-89
2021/05/18 14:23:13;;;;;;;9.20;7.25;;;;;;;11.15;76.28;100628.06;5028375;28;20048;-89
2021/05/18 14:25:40;;;;;;;9.15;7.20;;;;;;;11.20;77.15;100605.34;5057248;28;20222;-90
2021/05/18 14:28:06;;;;;;;8.73;7.22;;;;;;;11.49;74.90;100630.41;5055648;28;21103;-90
2021/05/18 14:30:32;;;;;;;8.57;6.82;;;;;;;11.57;73.20;100628.59;5052230;28;20044;-90
2021/05/18 14:33:00;;;;;;;10.75;6.90;;;;;;;11.52;72.36;100603.31;5035309;28;20075;-89
2021/05/18 14:35:28;;;;;;;8.60;6.80;;;;;;;11.48;73.71;100620.81;5054987;28;20465;-90
2021/05/18 14:38:06;;;;;;;10.75;6.75;;;;;;;11.46;72.67;100606.84;5054971;27;20036;-89
2021/05/18 14:45:43;;;;;;;8.73;5.80;;;;;;;11.23;74.81;100622.78;5052906;28;20036;-88
2021/05/18 14:48:22;;;;;;;8.52;6.78;;;;;;;11.20;74.63;100623.69;5055120;28;20570;-89
2021/05/18 14:54:04;;;;;;;9.43;7.03;;;;;;;10.86;77.60;100641.34;5088050;28;20048;-89
2021/05/18 14:56:31;;;;;;;9.82;7.57;;;;;;;10.81;79.15;100609.97;5052361;28;20040;-89
2021/05/18 14:58:56;;;;;;;9.85;8.00;;;;;;;11.22;74.38;100611.44;5054102;28;20059;-89
2021/05/18 15:01:25;;;;;;;10.38;8.15;;;;;;;10.96;74.65;100614.25;5058839;28;20043;-90
2021/05/18 15:03:51;;;;;;;10.48;7.30;;;;;;;10.94;75.76;100626.47;5058078;28;20040;-88
2021/05/18 15:06:16;;;;;;;9.00;7.20;;;;;;;10.96;76.10;100613.38;5054868;28;20560;-89
2021/05/18 15:08:42;;;;;;;9.40;7.43;;;;;;;11.17;73.16;100623.72;5038862;28;20078;-88
2021/05/18 15:11:09;;;;;;;10.23;8.38;;;;;;;10.94;75.96;100641.28;5054714;28;20052;-88
2021/05/18 15:13:34;;;;;;;10.27;7.40;;;;;;;10.78;76.32;100609.16;5036937;28;20067;-89
2021/05/18 15:16:02;;;;;;;10.30;8.73;;;;;;;11.01;75.49;100614.22;5042326;28;20883;-87
2021/05/18 15:18:33;;;;;;;9.85;7.43;;;;;;;10.86;76.08;100642.22;5057197;28;20048;-87
2021/05/18 15:21:04;;;;;;;11.13;8.35;;;;;;;10.88;77.04;100588.16;5053596;28;20126;-87
2021/05/18 15:23:32;;;;;;;10.52;7.85;;;;;;;11.25;74.91;100626.25;5074376;28;20039;-87
2021/05/18 15:25:59;;;;;;;10.05;8.10;;;;;;;11.20;75.58;100623.69;5063640;27;20051;-88
2021/05/18 15:28:25;;;;;;;8.10;6.68;;;;;;;11.16;75.67;100594.91;5052995;28;20024;-87
2021/05/18 15:30:51;;;;;;;8.25;7.07;;;;;;;11.49;73.34;100650.47;5053440;28;20132;-87
2021/05/18 15:33:17;;;;;;;11.35;7.10;;;;;;;11.63;73.47;100597.97;5052758;28;20032;-88
2021/05/18 15:35:43;;;;;;;9.63;7.40;;;;;;;11.90;72.71;100587.19;5052415;28;20670;-87
2021/05/18 15:38:08;;;;;;;8.80;6.72;;;;;;;12.01;72.99;100607.22;5066414;27;20077;-87
2021/05/18 15:40:37;;;;;;;10.15;7.30;;;;;;;12.08;71.70;100595.78;5053375;28;20023;-88
2021/05/18 15:43:03;;;;;;;8.40;6.32;;;;;;;12.14;72.42;100619.25;5038984;28;20052;-89
2021/05/18 15:45:29;;;;;;;8.40;6.13;;;;;;;12.10;69.44;100643.78;5068298;28;20219;-88
2021/05/18 15:47:54;;;;;;;8.10;5.95;;;;;;;11.96;71.64;100606.38;5053126;28;20051;-88
2021/05/18 15:50:20;;;;;;;7.93;5.55;;;;;;;11.92;69.98;100635.22;5036714;28;20044;-88
2021/05/18 15:52:46;;;;;;;8.55;6.28;;;;;;;11.69;73.13;100617.13;5053411;28;20112;-88
2021/05/18 15:55:12;;;;;;;7.30;5.85;;;;;;;11.53;71.51;100626.00;5054511;28;20519;-89
2021/05/18 15:57:38;;;;;;;7.97;5.63;;;;;;;11.35;73.21;100658.44;5051808;28;20048;-89
2021/05/18 16:00:06;;;;;;;9.98;6.57;;;;;;;11.21;76.68;100654.16;5049874;28;20078;-88
2021/05/18 16:02:42;;;;;;;8.48;5.80;;;;;;;11.19;76.51;100697.81;5067571;28;20055;-89
2021/05/18 16:05:08;;;;;;;13.15;6.70;;;;;;;11.08;77.49;100717.94;5036048;28;20035;-90
2021/05/18 16:07:41;;;;;;;11.57;8.00;;;;;;;11.22;80.45;100741.41;5055056;28;20044;-89
2021/05/18 16:10:10;;;;;;;10.77;7.03;;;;;;;10.86;81.78;100718.06;5005970;28;20048;-89
2021/05/18 16:12:45;;;;;;;8.25;5.60;;;;;;;10.83;77.68;100707.63;5038044;28;20044;-88
2021/05/18 16:15:14;;;;;;;7.40;5.45;;;;;;;10.77;78.00;100665.78;5070361;28;20054;-89
2021/05/18 16:21:33;;;;;;;6.78;4.35;;;;;;;10.63;79.89;100678.94;5039250;28;20686;-87
2021/05/18 16:23:59;;;;;;;5.30;4.03;;;;;;;10.33;80.97;100672.09;5036321;28;20043;-88
2021/05/18 16:26:28;;;;;;;5.38;4.25;;;;;;;10.17;85.07;100661.66;5028353;28;20064;-87
2021/05/18 16:28:55;;;;;;;5.32;4.47;;;;;;;10.03;85.99;100661.69;5062810;28;20023;-87
2021/05/18 16:31:22;;;;;;;5.00;3.60;;;;;;;10.46;81.54;100688.63;5055577;28;20369;-87
2021/05/18 16:33:54;;;;;;;6.15;4.30;;;;;;;10.27;84.74;100700.84;5051505;28;20098;-88
2021/05/18 16:36:20;;;;;;;6.68;4.95;;;;;;;10.09;86.68;100684.31;5050534;28;20075;-88
2021/05/18 16:38:47;;;;;;;5.50;4.55;;;;;;;10.31;84.75;100645.94;5052909;28;20089;-88
2021/05/18 16:41:13;;;;;;;6.10;4.90;;;;;;;10.06;85.76;100639.94;5050457;28;20041;-87
2021/05/18 16:43:39;;;;;;;7.47;4.60;;;;;;;10.03;87.09;100674.75;5051877;28;21127;-88
2021/05/18 16:46:07;;;;;;;5.68;4.55;;;;;;;10.17;85.87;100646.00;5050556;28;20128;-88